TAF EGGW
EGGW 090505Z 0906/1006 24012KT 9999 SCT028 PROB30 TEMPO 0906/0909 7000 SHRA BKN012 BECMG 0915/0918 17008KT BECMG 0917/0920 -RA BKN010 TEMPO 0918/0924 6000 RA BKN006 PROB30 TEMPO 0919/0923 3000 +RA RADZ BKN003 BECMG 0921/0924 30015KT BECMG 1000/1003 NSW SCT020 TEMPO 1001/1006 31020G30KT=
METAR EGGW
WC EGGW
WS EGGW
WV EGGW